Time;durP1;ratioP1;P1;durP2;ratioP2;P2;SDS_P1;SDS_P2;PMS_P1;PMS_P2;Temp;Humidity;BMP_temperature;BMP_pressure;BME280_temperature;BME280_humidity;BME280_pressure;Samples;Min_cycle;Max_cycle;Signal;HPM_P1;HPM_P2
2023/09/18 00:01:56;;;;;;;8.70;6.65;;;23.20;68.50;;;;;;5067408;28;20250;-31
2023/09/18 00:04:25;;;;;;;8.40;6.78;;;23.10;68.40;;;;;;5050168;28;20211;-31
2023/09/18 00:06:54;;;;;;;10.00;6.95;;;23.10;68.40;;;;;;5083710;28;20261;-31
2023/09/18 00:09:23;;;;;;;8.75;7.40;;;23.10;68.50;;;;;;5066785;28;20218;-31
2023/09/18 00:11:52;;;;;;;7.68;6.88;;;23.20;68.60;;;;;;5083619;28;20693;-31
2023/09/18 00:14:19;;;;;;;8.10;7.03;;;23.10;68.50;;;;;;5083386;28;20215;-31
2023/09/18 00:16:47;;;;;;;11.13;7.55;;;23.10;68.50;;;;;;5067371;28;20261;-31
2023/09/18 00:19:27;;;;;;;8.20;7.40;;;23.10;68.50;;;;;;5067734;28;20705;-31
2023/09/18 00:22:00;;;;;;;11.90;7.22;;;23.10;68.60;;;;;;5067267;28;20623;-31
2023/09/18 00:24:28;;;;;;;10.52;6.97;;;23.10;68.60;;;;;;5067204;28;20216;-31
2023/09/18 00:26:55;;;;;;;9.55;6.95;;;23.10;68.60;;;;;;5083787;28;20211;-31
2023/09/18 00:29:23;;;;;;;11.70;7.15;;;23.10;68.60;;;;;;5083588;28;20643;-31
2023/09/18 00:31:50;;;;;;;9.32;7.10;;;23.10;68.70;;;;;;5067080;28;20226;-31
2023/09/18 00:34:22;;;;;;;8.38;6.90;;;23.10;68.70;;;;;;5068326;28;20211;-31
2023/09/18 00:36:49;;;;;;;9.13;7.55;;;23.00;68.70;;;;;;5068691;28;20196;-31
2023/09/18 00:39:16;;;;;;;8.60;7.18;;;23.00;68.70;;;;;;5068097;28;20199;-31
2023/09/18 00:41:53;;;;;;;10.23;6.57;;;23.00;68.80;;;;;;5066560;28;20214;-31
2023/09/18 00:44:24;;;;;;;7.97;6.78;;;23.00;68.80;;;;;;5068362;28;20202;-31
2023/09/18 00:46:54;;;;;;;7.72;6.93;;;23.00;68.80;;;;;;5083317;28;20536;-31
2023/09/18 00:49:27;;;;;;;11.68;6.75;;;23.00;68.80;;;;;;5066654;28;20203;-31
2023/09/18 00:51:54;;;;;;;9.85;6.80;;;23.00;68.80;;;;;;5066581;28;20222;-31
2023/09/18 00:54:21;;;;;;;8.77;6.90;;;23.00;68.80;;;;;;5066501;28;20261;-31
2023/09/18 00:56:53;;;;;;;7.82;7.07;;;23.00;68.80;;;;;;5083045;28;20633;-31
2023/09/18 00:59:21;;;;;;;8.98;6.50;;;23.00;68.90;;;;;;5050597;28;20455;-31
2023/09/18 01:01:50;;;;;;;10.00;6.97;;;23.00;68.90;;;;;;5051205;28;20622;-31
2023/09/18 01:04:21;;;;;;;15.55;8.07;;;23.00;68.90;;;;;;5054928;28;20203;-31
2023/09/18 01:06:52;;;;;;;11.05;6.53;;;23.00;68.90;;;;;;5061077;28;20220;-31
2023/09/18 01:09:22;;;;;;;11.88;7.45;;;23.00;69.00;;;;;;5055575;28;20334;-31
2023/09/18 01:12:04;;;;;;;12.57;8.23;;;23.00;69.10;;;;;;5053383;28;21032;-31
2023/09/18 01:14:56;;;;;;;9.70;6.78;;;23.00;69.20;;;;;;5067440;28;20776;-31
2023/09/18 01:17:24;;;;;;;8.63;7.47;;;23.00;69.20;;;;;;5082534;28;20230;-31
2023/09/18 01:19:51;;;;;;;11.73;6.95;;;23.10;69.20;;;;;;5065012;28;20196;-31
2023/09/18 01:22:19;;;;;;;10.23;7.18;;;23.10;69.20;;;;;;5067071;28;20214;-31
2023/09/18 01:24:49;;;;;;;11.98;7.45;;;23.10;69.20;;;;;;5065780;28;20204;-31
2023/09/18 01:27:18;;;;;;;14.68;7.30;;;23.10;69.20;;;;;;5067076;28;20701;-31
2023/09/18 01:29:48;;;;;;;10.20;6.97;;;23.10;69.20;;;;;;5066201;28;20566;-31
2023/09/18 01:32:18;;;;;;;12.57;7.45;;;23.10;69.20;;;;;;5067049;28;20697;-31
2023/09/18 01:34:53;;;;;;;10.68;7.20;;;23.10;69.20;;;;;;5082003;28;20202;-31
2023/09/18 01:37:25;;;;;;;11.15;7.35;;;23.10;69.30;;;;;;5065863;28;20241;-31
2023/09/18 01:43:05;;;;;;;8.52;6.70;;;23.10;69.40;;;;;;5588471;24;20248;-31
2023/09/18 01:45:32;;;;;;;13.23;7.47;;;23.10;69.30;;;;;;4800570;29;20544;-31
2023/09/18 01:48:02;;;;;;;9.15;7.15;;;23.10;69.40;;;;;;4800308;29;20217;-31
2023/09/18 01:50:29;;;;;;;9.50;6.57;;;23.10;69.40;;;;;;4800615;29;20213;-31
2023/09/18 01:52:59;;;;;;;9.75;7.00;;;23.00;69.30;;;;;;4800321;29;20315;-31
2023/09/18 01:55:26;;;;;;;10.57;7.28;;;23.10;69.40;;;;;;4798762;29;20711;-30
2023/09/18 01:57:56;;;;;;;10.45;7.40;;;23.00;69.40;;;;;;4798471;29;20281;-30
2023/09/18 02:00:23;;;;;;;10.07;7.25;;;23.00;69.40;;;;;;4799785;29;20209;-30
2023/09/18 02:02:51;;;;;;;9.60;7.15;;;23.00;69.40;;;;;;4797657;29;20244;-32
2023/09/18 02:05:41;;;;;;;8.63;6.97;;;23.00;69.50;;;;;;4793278;29;20633;-32
2023/09/18 02:08:11;;;;;;;8.50;6.60;;;23.00;69.50;;;;;;4795468;29;20702;-30
2023/09/18 02:10:38;;;;;;;10.40;7.55;;;23.00;69.50;;;;;;4780581;30;20275;-31
2023/09/18 02:13:05;;;;;;;9.80;7.45;;;23.00;69.50;;;;;;4781905;29;20241;-30
2023/09/18 02:15:35;;;;;;;13.27;8.27;;;23.00;69.50;;;;;;4782371;29;20661;-31
2023/09/18 02:18:04;;;;;;;9.93;7.95;;;23.00;69.50;;;;;;4781888;29;20210;-30
2023/09/18 02:20:38;;;;;;;11.18;7.53;;;23.00;69.70;;;;;;4794454;29;20222;-31
2023/09/18 02:23:08;;;;;;;10.57;7.45;;;23.00;69.60;;;;;;4781784;29;20213;-28
2023/09/18 02:25:40;;;;;;;10.63;7.75;;;23.00;69.70;;;;;;4781544;29;20220;-28
2023/09/18 02:28:07;;;;;;;9.20;7.20;;;22.90;69.60;;;;;;4781387;29;20363;-28
2023/09/18 02:30:37;;;;;;;9.52;7.55;;;23.00;69.70;;;;;;4781458;29;20213;-29
2023/09/18 02:33:06;;;;;;;9.32;7.05;;;23.00;69.70;;;;;;4779899;30;20240;-28
2023/09/18 02:35:34;;;;;;;9.98;7.50;;;22.90;69.60;;;;;;4781612;29;20266;-27
2023/09/18 02:38:06;;;;;;;11.75;7.97;;;22.90;69.70;;;;;;4781827;29;20666;-27
2023/09/18 02:40:40;;;;;;;11.73;7.70;;;22.90;69.70;;;;;;4781694;29;20563;-27
2023/09/18 02:43:07;;;;;;;11.48;7.18;;;22.90;69.70;;;;;;4781600;29;20249;-27
2023/09/18 02:45:37;;;;;;;9.00;8.10;;;22.90;69.70;;;;;;4780181;30;20236;-27
2023/09/18 02:48:04;;;;;;;9.45;7.05;;;22.90;70.60;;;;;;4781639;29;20213;-27
2023/09/18 02:50:34;;;;;;;10.95;8.00;;;22.90;69.80;;;;;;4781545;29;20210;-27
2023/09/18 02:53:01;;;;;;;11.68;7.80;;;22.90;69.80;;;;;;4776629;29;20233;-27
2023/09/18 02:55:29;;;;;;;11.35;7.75;;;22.90;69.90;;;;;;4799057;29;20228;-27
2023/09/18 02:57:56;;;;;;;11.55;7.97;;;22.90;70.00;;;;;;4799157;29;20235;-28
2023/09/18 03:00:23;;;;;;;11.30;7.65;;;22.90;69.90;;;;;;4797768;29;20273;-28
2023/09/18 03:03:10;;;;;;;9.68;7.30;;;22.90;69.90;;;;;;4798244;29;20236;-28
2023/09/18 03:05:41;;;;;;;8.50;6.72;;;22.90;70.00;;;;;;4797671;29;20212;-28
2023/09/18 03:08:10;;;;;;;9.23;6.88;;;22.90;70.00;;;;;;4798828;29;20286;-27
2023/09/18 03:10:40;;;;;;;8.00;6.10;;;22.90;70.00;;;;;;4797353;29;20213;-27
2023/09/18 03:13:09;;;;;;;8.00;6.63;;;22.80;70.00;;;;;;4812584;29;20252;-28
2023/09/18 03:15:37;;;;;;;7.70;6.05;;;22.90;70.10;;;;;;4812585;29;20528;-27
2023/09/18 03:18:06;;;;;;;11.77;6.65;;;22.90;70.20;;;;;;4798974;29;20221;-30
2023/09/18 03:20:36;;;;;;;9.45;6.70;;;22.80;70.00;;;;;;4797959;29;20278;-31
2023/09/18 03:23:06;;;;;;;8.15;5.53;;;22.80;70.00;;;;;;4797324;29;20225;-30
2023/09/18 03:25:33;;;;;;;7.70;5.40;;;22.80;70.10;;;;;;4798959;29;20509;-30
2023/09/18 03:28:22;;;;;;;9.50;6.38;;;22.80;70.10;;;;;;4799247;29;20759;-30
2023/09/18 03:30:52;;;;;;;6.38;5.78;;;22.80;70.10;;;;;;4799261;29;20228;-30
2023/09/18 03:33:23;;;;;;;7.07;5.50;;;22.80;70.10;;;;;;4802192;29;20323;-30
2023/09/18 03:35:54;;;;;;;7.45;5.75;;;22.80;70.20;;;;;;4802384;29;20211;-30
2023/09/18 03:38:22;;;;;;;6.50;5.13;;;22.80;70.20;;;;;;4815998;29;20241;-32
2023/09/18 03:40:52;;;;;;;7.25;5.20;;;22.80;70.20;;;;;;4800827;29;20241;-30
2023/09/18 03:43:19;;;;;;;7.03;4.45;;;22.80;70.20;;;;;;4800571;29;20268;-30
2023/09/18 03:45:49;;;;;;;7.18;4.03;;;22.80;70.20;;;;;;4802149;29;20221;-30
2023/09/18 03:48:16;;;;;;;7.15;3.97;;;22.80;70.20;;;;;;4802149;29;20298;-30
2023/09/18 03:50:44;;;;;;;5.53;3.45;;;22.80;70.10;;;;;;4802199;29;20790;-30
2023/09/18 03:53:11;;;;;;;4.25;3.33;;;22.80;70.20;;;;;;4801931;29;20244;-31
2023/09/18 03:55:38;;;;;;;5.28;2.83;;;22.70;70.10;;;;;;4802286;29;20232;-30
2023/09/18 03:58:06;;;;;;;5.47;2.60;;;22.70;70.10;;;;;;4815768;29;20224;-31
2023/09/18 04:00:35;;;;;;;7.15;2.60;;;22.70;70.10;;;;;;4802198;29;20209;-30
2023/09/18 04:03:03;;;;;;;3.33;2.20;;;22.70;70.00;;;;;;4802221;29;20235;-30
2023/09/18 04:05:30;;;;;;;3.65;2.20;;;22.60;70.00;;;;;;4801026;29;20699;-30
2023/09/18 04:07:58;;;;;;;2.92;2.10;;;22.60;69.90;;;;;;4802165;29;20644;-30
2023/09/18 04:10:26;;;;;;;4.43;2.47;;;22.60;70.70;;;;;;4815459;29;20206;-30
2023/09/18 04:12:54;;;;;;;4.00;1.98;;;22.60;70.00;;;;;;4801812;29;20638;-30
2023/09/18 04:15:23;;;;;;;6.95;2.20;;;22.60;69.90;;;;;;4815278;29;20267;-31
2023/09/18 04:17:52;;;;;;;7.65;2.20;;;22.50;69.90;;;;;;4800699;29;20212;-30
2023/09/18 04:20:20;;;;;;;6.20;2.22;;;22.50;69.90;;;;;;4815283;29;20836;-32
2023/09/18 04:22:52;;;;;;;6.35;2.20;;;22.50;69.90;;;;;;4785139;29;20232;-31
2023/09/18 04:25:25;;;;;;;2.25;1.60;;;22.50;69.90;;;;;;4801619;29;20715;-31
2023/09/18 04:27:56;;;;;;;5.50;1.70;;;22.50;69.90;;;;;;4801476;29;20213;-30
2023/09/18 04:30:25;;;;;;;2.30;1.67;;;22.50;69.90;;;;;;4801806;29;20215;-30
2023/09/18 04:32:53;;;;;;;5.18;1.77;;;22.40;69.90;;;;;;4801515;29;20264;-31
2023/09/18 04:35:25;;;;;;;2.63;1.60;;;22.40;69.80;;;;;;4801709;29;20197;-30
2023/09/18 04:37:58;;;;;;;5.32;1.85;;;22.40;69.80;;;;;;4799893;29;20312;-30
2023/09/18 04:40:31;;;;;;;3.47;1.70;;;22.40;69.90;;;;;;4801813;29;20225;-30
2023/09/18 04:42:59;;;;;;;2.08;1.38;;;22.30;69.70;;;;;;4800848;29;20245;-30
2023/09/18 04:45:27;;;;;;;2.25;1.45;;;22.30;69.70;;;;;;4799624;29;20224;-28
2023/09/18 04:47:58;;;;;;;2.65;1.63;;;22.30;69.80;;;;;;4799713;29;20209;-27
2023/09/18 04:50:29;;;;;;;3.63;1.60;;;22.20;69.70;;;;;;4801409;29;20657;-27
2023/09/18 04:52:59;;;;;;;5.47;1.67;;;22.20;69.80;;;;;;4801102;29;20297;-27
2023/09/18 04:55:26;;;;;;;3.55;1.73;;;22.20;70.60;;;;;;4801079;29;20217;-29
2023/09/18 04:57:58;;;;;;;5.38;1.60;;;22.20;69.80;;;;;;4814195;29;20224;-27
2023/09/18 05:00:26;;;;;;;3.42;1.65;;;22.20;69.90;;;;;;4800755;29;20205;-27
2023/09/18 05:02:55;;;;;;;3.85;1.60;;;22.10;69.70;;;;;;4799305;29;20585;-29
2023/09/18 05:05:23;;;;;;;2.55;1.30;;;22.10;69.70;;;;;;4799184;29;20691;-29
2023/09/18 05:07:52;;;;;;;3.30;1.77;;;22.10;69.70;;;;;;4799974;29;20205;-29
2023/09/18 05:10:22;;;;;;;3.25;1.52;;;22.00;69.60;;;;;;4801063;29;20691;-29
2023/09/18 05:12:58;;;;;;;5.18;1.67;;;22.00;69.60;;;;;;4814164;29;20229;-29
2023/09/18 05:15:26;;;;;;;3.47;1.90;;;22.00;69.70;;;;;;4799504;29;20216;-29
2023/09/18 05:17:58;;;;;;;4.78;1.88;;;22.00;69.70;;;;;;4799426;29;21051;-29
2023/09/18 05:20:28;;;;;;;5.38;2.00;;;21.90;69.80;;;;;;4800766;29;20250;-29
2023/09/18 05:22:57;;;;;;;3.95;1.60;;;21.90;69.80;;;;;;4800520;29;20301;-29
2023/09/18 05:25:26;;;;;;;3.80;1.80;;;21.90;69.80;;;;;;4814096;29;20642;-29
2023/09/18 05:27:59;;;;;;;3.55;1.70;;;21.90;70.60;;;;;;4798870;29;20699;-29
2023/09/18 05:30:38;;;;;;;3.95;1.90;;;21.80;69.70;;;;;;4813792;29;20227;-29
2023/09/18 05:33:09;;;;;;;4.13;2.08;;;21.80;70.60;;;;;;4798771;29;20297;-29
2023/09/18 05:35:44;;;;;;;5.68;1.90;;;21.80;69.80;;;;;;4813779;29;20245;-29
2023/09/18 05:38:13;;;;;;;4.45;2.03;;;21.80;69.90;;;;;;4800609;29;20212;-29
2023/09/18 05:40:41;;;;;;;5.32;1.60;;;21.80;70.00;;;;;;4800141;29;20302;-29
2023/09/18 05:43:12;;;;;;;7.38;2.05;;;21.70;69.80;;;;;;4798597;29;20345;-29
2023/09/18 05:45:40;;;;;;;4.28;2.08;;;21.70;69.90;;;;;;4800281;29;20216;-29
2023/09/18 05:48:09;;;;;;;2.75;2.00;;;21.70;69.80;;;;;;4799789;29;20201;-29
2023/09/18 05:50:38;;;;;;;5.40;2.13;;;21.70;69.80;;;;;;4815277;29;20235;-29
2023/09/18 05:53:05;;;;;;;8.95;1.90;;;21.70;69.90;;;;;;4799738;29;20281;-29
2023/09/18 05:55:37;;;;;;;8.68;2.30;;;21.70;69.90;;;;;;4799407;29;20205;-29
2023/09/18 05:58:06;;;;;;;5.90;1.80;;;21.60;69.90;;;;;;4799014;29;20282;-29
2023/09/18 06:00:36;;;;;;;4.80;2.20;;;21.60;69.80;;;;;;4813656;29;20220;-29
2023/09/18 06:03:05;;;;;;;5.85;1.98;;;21.60;69.80;;;;;;4799885;29;20213;-29
2023/09/18 06:05:34;;;;;;;5.20;2.00;;;21.60;69.90;;;;;;4798335;29;20760;-29
2023/09/18 06:08:02;;;;;;;3.20;1.90;;;21.60;70.60;;;;;;4813280;29;20241;-29
2023/09/18 06:10:29;;;;;;;6.35;2.50;;;21.60;70.00;;;;;;4798633;29;20277;-29
2023/09/18 06:12:57;;;;;;;5.82;1.70;;;21.60;70.00;;;;;;4798308;29;20735;-29
2023/09/18 06:15:27;;;;;;;2.67;1.90;;;21.50;69.90;;;;;;4799891;29;20224;-29
2023/09/18 06:17:57;;;;;;;4.45;1.65;;;21.50;69.90;;;;;;4801133;29;20578;-29
2023/09/18 06:20:24;;;;;;;4.10;1.85;;;21.50;69.90;;;;;;4803330;29;20567;-29
2023/09/18 06:22:51;;;;;;;4.60;1.65;;;21.50;69.90;;;;;;4799918;29;20269;-29
2023/09/18 06:25:19;;;;;;;4.15;1.90;;;21.50;69.90;;;;;;4799530;29;20217;-29
2023/09/18 06:27:46;;;;;;;4.70;1.90;;;21.50;69.80;;;;;;4799908;29;20213;-29
2023/09/18 06:30:14;;;;;;;6.85;1.70;;;21.50;70.00;;;;;;4783219;29;20240;-29
2023/09/18 06:32:44;;;;;;;5.63;1.98;;;21.50;69.90;;;;;;4799018;29;20580;-29
2023/09/18 06:35:15;;;;;;;6.22;1.88;;;21.50;69.90;;;;;;4799707;29;20221;-29
2023/09/18 06:37:42;;;;;;;6.93;1.83;;;21.50;69.90;;;;;;4798172;29;20213;-29
2023/09/18 06:40:16;;;;;;;6.75;1.75;;;21.40;70.00;;;;;;4799077;29;20218;-29
2023/09/18 06:42:46;;;;;;;4.35;1.70;;;21.40;70.00;;;;;;4799037;29;20225;-29
2023/09/18 06:45:13;;;;;;;4.03;1.98;;;21.50;70.00;;;;;;4797493;29;20646;-29
2023/09/18 06:47:45;;;;;;;3.78;1.58;;;21.40;69.90;;;;;;4799265;29;20257;-29
2023/09/18 06:50:12;;;;;;;2.97;1.40;;;21.40;70.00;;;;;;4798772;29;20209;-29
2023/09/18 06:52:40;;;;;;;6.28;2.13;;;21.40;70.00;;;;;;4812655;29;20232;-29
2023/09/18 06:55:09;;;;;;;6.70;2.13;;;21.40;70.00;;;;;;4799074;29;20205;-29
2023/09/18 06:57:36;;;;;;;2.55;1.65;;;21.40;70.00;;;;;;4798998;29;20216;-29
2023/09/18 07:00:06;;;;;;;4.95;1.70;;;21.40;70.00;;;;;;4798897;29;20236;-29
2023/09/18 07:02:33;;;;;;;2.80;1.80;;;21.40;70.10;;;;;;4797689;29;20211;-29
2023/09/18 07:05:04;;;;;;;4.18;1.90;;;21.40;70.10;;;;;;4798144;29;20209;-29
2023/09/18 07:07:34;;;;;;;4.72;2.20;;;21.40;70.00;;;;;;4812330;29;20227;-29
2023/09/18 07:10:04;;;;;;;4.20;1.92;;;21.40;70.00;;;;;;4799204;29;20553;-29
2023/09/18 07:12:34;;;;;;;5.28;1.80;;;21.40;70.00;;;;;;4812543;29;20774;-29
2023/09/18 07:15:12;;;;;;;7.75;2.38;;;21.40;70.00;;;;;;4797300;29;20245;-29
2023/09/18 07:17:40;;;;;;;3.15;1.83;;;21.40;70.00;;;;;;4799013;29;20209;-29
2023/09/18 07:20:13;;;;;;;4.13;1.85;;;21.40;70.00;;;;;;4798982;29;20205;-29
2023/09/18 07:22:45;;;;;;;2.97;1.90;;;21.40;70.00;;;;;;4798483;29;20732;-29
2023/09/18 07:25:15;;;;;;;18.52;3.55;;;21.40;70.00;;;;;;4798766;29;20240;-29
2023/09/18 07:27:46;;;;;;;8.63;2.20;;;21.40;70.10;;;;;;4797463;29;20221;-29
2023/09/18 07:30:19;;;;;;;2.92;1.75;;;21.40;70.00;;;;;;4797574;29;20208;-29
2023/09/18 07:32:48;;;;;;;5.07;2.17;;;21.40;70.00;;;;;;4798806;29;20612;-29
2023/09/18 07:35:16;;;;;;;11.70;2.08;;;21.40;70.00;;;;;;4797506;29;20224;-29
2023/09/18 07:37:45;;;;;;;6.25;2.22;;;21.40;70.00;;;;;;4799070;29;20216;-29
2023/09/18 07:40:16;;;;;;;4.75;2.60;;;21.40;70.00;;;;;;4798253;29;20668;-29
2023/09/18 07:42:45;;;;;;;5.18;2.22;;;21.40;70.00;;;;;;4812413;29;20209;-29
2023/09/18 07:45:13;;;;;;;4.30;2.13;;;21.40;70.10;;;;;;4798946;29;20525;-29
2023/09/18 07:47:40;;;;;;;6.55;2.38;;;21.40;70.00;;;;;;4798257;29;20249;-29
2023/09/18 07:50:10;;;;;;;5.18;2.40;;;21.40;70.00;;;;;;4782395;29;20312;-29
2023/09/18 07:52:37;;;;;;;9.27;2.33;;;21.50;70.20;;;;;;4798682;29;20221;-29
2023/09/18 07:55:08;;;;;;;7.55;2.50;;;21.50;70.20;;;;;;4782497;29;20458;-29
2023/09/18 07:57:38;;;;;;;5.80;2.40;;;21.50;70.20;;;;;;4798398;29;20213;-29
2023/09/18 08:00:12;;;;;;;5.05;2.30;;;21.50;70.10;;;;;;4798323;29;20316;-29
2023/09/18 08:02:42;;;;;;;6.22;2.10;;;21.50;70.00;;;;;;4798576;29;20731;-29
2023/09/18 08:05:15;;;;;;;5.57;2.03;;;21.50;70.10;;;;;;4796979;29;20614;-29
2023/09/18 08:07:44;;;;;;;6.07;2.45;;;21.50;70.00;;;;;;4798684;29;20655;-29
2023/09/18 08:10:12;;;;;;;7.03;2.58;;;21.50;70.00;;;;;;4798406;29;20240;-29
2023/09/18 08:12:40;;;;;;;5.32;2.47;;;21.50;70.10;;;;;;4796970;29;20240;-28
2023/09/18 08:15:11;;;;;;;6.82;2.33;;;21.50;70.20;;;;;;4796909;29;20241;-28
2023/09/18 08:17:40;;;;;;;4.47;2.42;;;21.50;70.20;;;;;;4797415;29;20225;-28
2023/09/18 08:20:14;;;;;;;3.55;1.98;;;21.60;70.30;;;;;;4801320;29;20212;-29
2023/09/18 08:22:44;;;;;;;4.07;1.95;;;21.60;70.20;;;;;;4801752;29;20771;-33
2023/09/18 08:25:13;;;;;;;10.05;2.97;;;21.60;70.20;;;;;;4814946;29;20211;-29
2023/09/18 08:27:47;;;;;;;6.47;2.47;;;21.60;70.30;;;;;;4814693;29;20236;-29
2023/09/18 08:30:17;;;;;;;5.07;2.00;;;21.60;70.20;;;;;;4785338;29;20213;-29
2023/09/18 08:32:44;;;;;;;4.47;2.00;;;21.60;70.20;;;;;;4800162;29;20217;-29
2023/09/18 08:35:11;;;;;;;2.88;2.20;;;21.60;70.20;;;;;;4801394;29;20241;-29
2023/09/18 08:37:43;;;;;;;4.50;2.10;;;21.70;70.30;;;;;;4801677;29;20303;-29
2023/09/18 08:40:13;;;;;;;7.70;2.58;;;21.70;70.30;;;;;;4801156;29;20577;-29
2023/09/18 08:42:55;;;;;;;3.38;2.25;;;21.70;70.40;;;;;;4814816;29;20201;-29
2023/09/18 08:45:37;;;;;;;6.22;2.60;;;21.70;70.40;;;;;;4799597;29;20263;-29
2023/09/18 08:48:05;;;;;;;8.18;2.45;;;21.80;70.50;;;;;;4801049;29;20211;-29
2023/09/18 08:50:34;;;;;;;4.18;2.65;;;21.80;70.50;;;;;;4799955;29;20205;-29
2023/09/18 08:53:03;;;;;;;7.97;2.90;;;21.80;70.50;;;;;;4801705;29;20297;-30
2023/09/18 08:55:36;;;;;;;6.32;2.75;;;21.90;70.50;;;;;;4814619;29;20563;-29
2023/09/18 08:58:04;;;;;;;6.20;2.80;;;21.90;70.50;;;;;;4814614;29;20237;-29
2023/09/18 09:00:31;;;;;;;6.40;2.80;;;22.00;70.60;;;;;;4800852;29;20212;-29
2023/09/18 09:03:01;;;;;;;7.53;2.40;;;22.10;70.50;;;;;;4799209;29;20283;-29
2023/09/18 09:05:31;;;;;;;6.13;2.63;;;22.10;70.50;;;;;;4814223;29;20206;-29
2023/09/18 09:07:59;;;;;;;7.80;2.83;;;22.20;70.40;;;;;;4799464;29;20212;-29
2023/09/18 09:10:31;;;;;;;9.30;2.90;;;22.10;70.40;;;;;;4801149;29;20755;-29
2023/09/18 09:13:02;;;;;;;5.45;2.92;;;22.20;70.40;;;;;;4800491;29;20213;-29
2023/09/18 09:15:45;;;;;;;9.45;3.20;;;22.20;70.30;;;;;;4800367;29;20723;-28
2023/09/18 09:18:18;;;;;;;6.43;2.80;;;22.20;70.30;;;;;;4813476;29;20278;-28
2023/09/18 09:21:01;;;;;;;6.85;2.60;;;22.30;70.40;;;;;;4800788;29;20688;-28
2023/09/18 09:23:51;;;;;;;5.35;2.63;;;22.30;70.50;;;;;;4800030;29;20201;-28
2023/09/18 09:26:22;;;;;;;8.15;3.10;;;22.40;70.50;;;;;;4802529;29;20562;-28
2023/09/18 09:28:50;;;;;;;5.13;2.80;;;22.40;70.40;;;;;;4799369;29;20313;-30
2023/09/18 09:31:28;;;;;;;7.13;2.80;;;22.40;70.30;;;;;;4800614;29;20229;-31
2023/09/18 09:34:01;;;;;;;6.25;2.47;;;22.50;71.00;;;;;;4798558;29;20240;-31
2023/09/18 09:36:31;;;;;;;8.68;3.20;;;22.50;70.30;;;;;;4800402;29;20205;-31
2023/09/18 09:39:00;;;;;;;5.85;2.75;;;22.50;70.10;;;;;;4799207;29;20274;-31
2023/09/18 09:41:28;;;;;;;14.50;3.78;;;22.50;70.20;;;;;;4800162;29;20562;-31
2023/09/18 09:44:00;;;;;;;5.47;3.35;;;22.50;70.20;;;;;;4799755;29;20255;-31
2023/09/18 09:46:28;;;;;;;7.43;2.90;;;22.60;70.30;;;;;;4798746;29;20201;-31
2023/09/18 09:49:06;;;;;;;4.57;2.95;;;22.60;70.30;;;;;;4813258;29;20229;-31
2023/09/18 09:51:36;;;;;;;7.35;2.72;;;22.70;71.00;;;;;;4798469;29;20217;-31
2023/09/18 09:54:04;;;;;;;8.85;2.83;;;22.70;70.20;;;;;;4799838;29;20582;-30
2023/09/18 09:56:53;;;;;;;7.50;3.15;;;22.70;70.10;;;;;;4800835;29;20219;-31
2023/09/18 09:59:25;;;;;;;7.40;2.92;;;22.80;70.30;;;;;;4800748;29;20193;-31
2023/09/18 10:01:55;;;;;;;5.60;2.70;;;22.80;70.00;;;;;;4798652;29;20281;-31
2023/09/18 10:04:28;;;;;;;9.10;3.00;;;22.80;70.10;;;;;;4798437;29;20205;-31
2023/09/18 10:07:07;;;;;;;5.72;2.90;;;22.80;69.90;;;;;;4800127;29;20300;-31
2023/09/18 10:09:38;;;;;;;9.65;3.10;;;22.80;69.60;;;;;;4799663;29;20208;-31
2023/09/18 10:12:11;;;;;;;12.23;3.50;;;22.90;69.90;;;;;;4799471;29;20242;-31
2023/09/18 10:14:39;;;;;;;18.02;4.45;;;22.90;69.60;;;;;;4797883;29;20233;-31
2023/09/18 10:17:30;;;;;;;12.90;3.65;;;22.90;69.60;;;;;;4810617;29;20350;-31
2023/09/18 10:20:20;;;;;;;6.38;3.20;;;22.90;69.60;;;;;;4783319;29;20803;-28
2023/09/18 10:22:56;;;;;;;4.65;2.85;;;22.90;69.50;;;;;;4799106;29;20233;-28
2023/09/18 10:25:27;;;;;;;5.05;2.95;;;23.00;69.60;;;;;;4782967;29;20309;-28
2023/09/18 10:28:01;;;;;;;6.45;2.80;;;23.00;69.80;;;;;;4799338;29;20695;-28
2023/09/18 10:30:35;;;;;;;4.72;2.47;;;23.00;69.70;;;;;;4797809;29;20315;-28
2023/09/18 10:33:03;;;;;;;8.05;2.80;;;23.00;69.40;;;;;;4797856;29;20218;-28
2023/09/18 10:35:34;;;;;;;6.05;2.65;;;23.10;69.60;;;;;;4782956;29;20650;-28
2023/09/18 10:38:07;;;;;;;6.57;2.95;;;23.10;69.30;;;;;;4798262;29;20209;-28
2023/09/18 10:40:37;;;;;;;7.43;2.75;;;23.10;69.10;;;;;;4798743;29;20216;-28
2023/09/18 10:43:09;;;;;;;6.43;2.80;;;23.10;69.20;;;;;;4782868;29;20241;-28
2023/09/18 10:45:42;;;;;;;10.15;2.85;;;23.10;69.00;;;;;;4799009;29;20296;-28
2023/09/18 10:48:17;;;;;;;5.88;2.55;;;23.10;69.00;;;;;;4783030;29;20312;-28
2023/09/18 10:50:47;;;;;;;5.82;2.60;;;23.10;69.00;;;;;;4797305;29;20296;-28
2023/09/18 10:53:17;;;;;;;7.40;2.88;;;23.20;69.20;;;;;;4797435;29;20913;-28
2023/09/18 10:55:45;;;;;;;9.85;3.75;;;23.20;69.20;;;;;;4797232;29;20243;-28
2023/09/18 10:58:25;;;;;;;4.35;2.60;;;23.20;69.00;;;;;;4782470;29;20282;-28
2023/09/18 11:00:54;;;;;;;6.28;2.60;;;23.20;68.90;;;;;;4798722;29;20527;-28
2023/09/18 11:03:25;;;;;;;12.43;2.83;;;23.30;68.80;;;;;;4798789;29;20201;-28
2023/09/18 11:06:10;;;;;;;5.07;2.65;;;23.30;68.70;;;;;;4783308;29;20231;-31
2023/09/18 11:08:45;;;;;;;5.53;2.33;;;23.30;68.70;;;;;;4798887;29;20408;-31
2023/09/18 11:11:25;;;;;;;4.18;2.55;;;23.30;68.70;;;;;;4811992;29;20223;-31
2023/09/18 11:13:56;;;;;;;6.97;2.75;;;23.30;68.50;;;;;;4799043;29;20217;-31
2023/09/18 11:16:31;;;;;;;11.07;2.70;;;23.20;68.30;;;;;;4797484;29;20221;-31
2023/09/18 11:19:01;;;;;;;8.30;2.92;;;23.20;68.30;;;;;;4813391;29;20558;-31
2023/09/18 11:21:30;;;;;;;17.05;3.35;;;23.20;68.20;;;;;;4798797;29;20212;-31
2023/09/18 11:24:05;;;;;;;8.05;2.58;;;23.20;68.20;;;;;;4797352;29;20886;-31
2023/09/18 11:26:37;;;;;;;7.55;2.65;;;23.20;68.30;;;;;;4812595;29;21654;-31
2023/09/18 11:29:06;;;;;;;7.07;2.55;;;23.10;68.00;;;;;;4798812;29;20212;-31
2023/09/18 11:31:46;;;;;;;4.80;2.58;;;23.10;67.70;;;;;;4812110;29;20270;-28
2023/09/18 11:34:21;;;;;;;6.10;2.47;;;23.10;67.80;;;;;;4797058;29;20649;-28
2023/09/18 11:36:50;;;;;;;7.95;2.97;;;23.10;68.10;;;;;;4812305;29;20285;-28
2023/09/18 11:39:39;;;;;;;10.43;2.50;;;23.10;68.10;;;;;;4798420;29;20209;-28
2023/09/18 11:42:13;;;;;;;6.53;2.60;;;23.10;67.90;;;;;;4797286;29;20307;-31
2023/09/18 11:44:41;;;;;;;4.80;2.50;;;23.10;68.10;;;;;;4798549;29;20253;-31
2023/09/18 11:47:23;;;;;;;10.70;3.05;;;23.10;67.90;;;;;;4798027;29;20255;-31
2023/09/18 11:50:04;;;;;;;27.08;4.72;;;23.10;67.90;;;;;;4811992;29;20578;-31
2023/09/18 11:52:35;;;;;;;32.63;5.88;;;23.10;67.80;;;;;;4799276;29;20221;-31
2023/09/18 11:55:06;;;;;;;21.55;3.95;;;23.10;68.10;;;;;;4800770;29;20225;-31
2023/09/18 11:57:46;;;;;;;19.08;4.60;;;23.10;68.00;;;;;;4815430;29;20231;-30
2023/09/18 12:00:25;;;;;;;9.65;3.08;;;23.20;68.10;;;;;;4801694;29;20213;-31
2023/09/18 12:02:55;;;;;;;10.50;2.92;;;23.20;68.30;;;;;;4802140;29;20208;-31
2023/09/18 12:05:26;;;;;;;4.70;2.83;;;23.30;68.40;;;;;;4801858;29;20208;-31
2023/09/18 12:07:56;;;;;;;8.82;2.53;;;23.30;68.30;;;;;;4801629;29;20300;-31
2023/09/18 12:10:25;;;;;;;7.65;2.95;;;23.30;68.10;;;;;;4801794;29;20229;-30
2023/09/18 12:12:52;;;;;;;8.57;2.90;;;23.40;68.00;;;;;;4801437;29;20239;-31
2023/09/18 12:15:24;;;;;;;6.03;2.78;;;23.40;68.00;;;;;;4799598;29;20248;-31
2023/09/18 12:18:05;;;;;;;5.07;2.47;;;23.40;67.90;;;;;;4815055;29;20210;-31
2023/09/18 12:20:34;;;;;;;6.63;2.72;;;23.50;67.80;;;;;;4799929;29;20211;-31
2023/09/18 12:23:09;;;;;;;23.63;4.18;;;23.50;67.80;;;;;;4800106;29;20229;-31
2023/09/18 12:25:38;;;;;;;18.40;3.63;;;23.50;67.60;;;;;;4800080;29;20225;-31
2023/09/18 12:28:07;;;;;;;26.02;5.13;;;23.50;67.00;;;;;;4785302;29;20281;-31
2023/09/18 12:30:34;;;;;;;18.75;4.07;;;23.60;67.70;;;;;;4800119;29;20583;-31
2023/09/18 12:33:03;;;;;;;8.13;2.47;;;23.60;67.20;;;;;;4785345;29;20258;-31
2023/09/18 12:35:35;;;;;;;8.10;2.80;;;23.60;67.30;;;;;;4801466;29;20645;-31
2023/09/18 12:38:13;;;;;;;4.57;2.22;;;23.60;67.40;;;;;;4799847;29;20251;-31
2023/09/18 12:40:41;;;;;;;8.30;2.40;;;23.60;67.30;;;;;;4801409;29;20219;-31
2023/09/18 12:43:12;;;;;;;8.48;2.60;;;23.60;67.30;;;;;;4814123;29;20241;-31
2023/09/18 12:45:39;;;;;;;3.50;2.08;;;23.60;67.10;;;;;;4814465;29;20300;-31
2023/09/18 12:48:10;;;;;;;3.78;2.20;;;23.70;67.00;;;;;;4799395;29;20237;-31
2023/09/18 12:50:40;;;;;;;5.50;2.50;;;23.70;66.60;;;;;;4814189;29;20216;-31
2023/09/18 12:53:15;;;;;;;34.67;5.00;;;23.70;66.80;;;;;;4801355;29;20770;-31
2023/09/18 12:55:45;;;;;;;19.35;3.90;;;23.70;66.70;;;;;;4800897;29;20694;-31
2023/09/18 12:58:13;;;;;;;29.17;4.68;;;23.70;66.80;;;;;;4800931;29;20216;-31
2023/09/18 13:00:51;;;;;;;11.48;3.13;;;23.70;66.80;;;;;;4800724;29;20590;-31
2023/09/18 13:03:22;;;;;;;10.57;2.53;;;23.70;66.60;;;;;;4814509;29;20229;-31
2023/09/18 13:06:10;;;;;;;7.65;2.10;;;23.70;66.30;;;;;;4813429;29;20225;-31
2023/09/18 13:08:40;;;;;;;5.78;2.30;;;23.70;66.50;;;;;;4801441;29;20591;-31